Victor, Washington
Current Conditions -  °F | °C
As of 4:53 PM on Saturday 22 Nov 2014 (Local Time) from KTIW Reporting Station
Scattered Clouds Scattered Clouds  
Wind Chill: 46°   Ceiling: Unl
Heat Index: 49°   Visibility: 10mi
Dew Point: 41°   Wind: 7mph
Humidity: 74%   Direction: 200°SSW
Pressure: 29.98"   Gusts: NA
Location:  47.2986°N, 122.616°W
Report Text: KTIW 230053Z 20006KT 10SM SCT025 SCT050 09/05 A2998 RMK AO2 SLP154 T00940050
Loading
Personal Weather Stations






























Interactive Weather Map New forecast layout! Learn more

10-Day Weather Forecast

Advertisements
Track Severe Weather on mobile